sensor_id;sensor_type;location;lat;lon;timestamp;pressure;altitude;pressure_sealevel;temperature;humidity
65131;BME280;51709;54.912;8.316;2024-01-25T00:03:16;101663.88;;;8.06;83.63
65131;BME280;51709;54.912;8.316;2024-01-25T00:08:36;101649.50;;;8.06;83.66
65131;BME280;51709;54.912;8.316;2024-01-25T00:13:58;101613.59;;;8.04;83.64
65131;BME280;51709;54.912;8.316;2024-01-25T00:19:18;101651.69;;;8.01;83.66
65131;BME280;51709;54.912;8.316;2024-01-25T00:24:39;101645.44;;;8.00;83.65
65131;BME280;51709;54.912;8.316;2024-01-25T00:30:00;101630.31;;;7.98;83.78
65131;BME280;51709;54.912;8.316;2024-01-25T00:35:21;101629.81;;;7.93;83.57
65131;BME280;51709;54.912;8.316;2024-01-25T00:40:42;101649.22;;;7.87;83.78
65131;BME280;51709;54.912;8.316;2024-01-25T00:46:04;101635.56;;;7.88;83.76
65131;BME280;51709;54.912;8.316;2024-01-25T00:51:24;101708.41;;;7.91;83.65
65131;BME280;51709;54.912;8.316;2024-01-25T00:56:45;101647.25;;;7.89;83.60
65131;BME280;51709;54.912;8.316;2024-01-25T01:02:10;101666.56;;;7.84;83.68
65131;BME280;51709;54.912;8.316;2024-01-25T01:07:32;101696.44;;;7.83;84.24
65131;BME280;51709;54.912;8.316;2024-01-25T01:12:53;101686.72;;;7.80;83.92
65131;BME280;51709;54.912;8.316;2024-01-25T01:18:14;101693.47;;;7.75;83.83
65131;BME280;51709;54.912;8.316;2024-01-25T01:23:35;101692.59;;;7.74;84.24
65131;BME280;51709;54.912;8.316;2024-01-25T01:28:55;101684.75;;;7.71;84.11
65131;BME280;51709;54.912;8.316;2024-01-25T01:34:16;101697.66;;;7.68;84.13
65131;BME280;51709;54.912;8.316;2024-01-25T01:39:38;101687.03;;;7.65;84.34
65131;BME280;51709;54.912;8.316;2024-01-25T01:44:59;101692.94;;;7.59;84.11
65131;BME280;51709;54.912;8.316;2024-01-25T01:50:19;101699.09;;;7.61;84.37
65131;BME280;51709;54.912;8.316;2024-01-25T01:55:40;101749.59;;;7.60;84.41
65131;BME280;51709;54.912;8.316;2024-01-25T02:01:02;101737.91;;;7.60;84.25
65131;BME280;51709;54.912;8.316;2024-01-25T02:06:24;101732.50;;;7.60;84.13
65131;BME280;51709;54.912;8.316;2024-01-25T02:11:44;101756.09;;;7.58;84.16
65131;BME280;51709;54.912;8.316;2024-01-25T02:17:05;101749.59;;;7.60;84.69
65131;BME280;51709;54.912;8.316;2024-01-25T02:22:26;101741.38;;;7.62;84.70
65131;BME280;51709;54.912;8.316;2024-01-25T02:27:46;101757.59;;;7.62;84.44
65131;BME280;51709;54.912;8.316;2024-01-25T02:33:07;101788.09;;;7.64;84.70
65131;BME280;51709;54.912;8.316;2024-01-25T02:38:28;101790.34;;;7.70;84.49
65131;BME280;51709;54.912;8.316;2024-01-25T02:43:49;101794.13;;;7.67;84.54
65131;BME280;51709;54.912;8.316;2024-01-25T02:49:09;101817.72;;;7.65;84.33
65131;BME280;51709;54.912;8.316;2024-01-25T02:54:30;101802.38;;;7.66;84.70
65131;BME280;51709;54.912;8.316;2024-01-25T02:59:51;101809.28;;;7.70;84.68
65131;BME280;51709;54.912;8.316;2024-01-25T03:05:12;101835.97;;;7.74;84.33
65131;BME280;51709;54.912;8.316;2024-01-25T03:10:32;101836.72;;;7.76;84.84
65131;BME280;51709;54.912;8.316;2024-01-25T03:15:53;101850.97;;;7.78;85.02
65131;BME280;51709;54.912;8.316;2024-01-25T03:21:14;101819.47;;;7.77;84.93
65131;BME280;51709;54.912;8.316;2024-01-25T03:26:35;101844.94;;;7.75;85.04
65131;BME280;51709;54.912;8.316;2024-01-25T03:31:55;101857.47;;;7.76;85.03
65131;BME280;51709;54.912;8.316;2024-01-25T03:37:16;101835.38;;;7.82;84.90
65131;BME280;51709;54.912;8.316;2024-01-25T03:42:37;101831.47;;;7.86;84.60
65131;BME280;51709;54.912;8.316;2024-01-25T03:47:58;101862.81;;;7.88;84.34
65131;BME280;51709;54.912;8.316;2024-01-25T03:53:19;101888.28;;;7.86;84.19
65131;BME280;51709;54.912;8.316;2024-01-25T03:58:39;101905.59;;;7.83;84.30
65131;BME280;51709;54.912;8.316;2024-01-25T04:04:00;101926.28;;;7.84;84.36
65131;BME280;51709;54.912;8.316;2024-01-25T04:09:21;101927.81;;;7.76;84.25
65131;BME280;51709;54.912;8.316;2024-01-25T04:14:41;101947.50;;;7.78;84.43
65131;BME280;51709;54.912;8.316;2024-01-25T04:20:02;101937.31;;;7.81;84.52
65131;BME280;51709;54.912;8.316;2024-01-25T04:25:23;101945.31;;;7.83;84.30
65131;BME280;51709;54.912;8.316;2024-01-25T04:30:44;101962.28;;;7.85;84.83
65131;BME280;51709;54.912;8.316;2024-01-25T04:36:05;101957.13;;;7.82;84.68
65131;BME280;51709;54.912;8.316;2024-01-25T04:41:25;101940.38;;;7.77;84.39
65131;BME280;51709;54.912;8.316;2024-01-25T04:46:46;101945.03;;;7.75;84.28
65131;BME280;51709;54.912;8.316;2024-01-25T04:52:07;101943.75;;;7.68;84.50
65131;BME280;51709;54.912;8.316;2024-01-25T04:57:27;101953.06;;;7.64;84.41
65131;BME280;51709;54.912;8.316;2024-01-25T05:02:48;101964.88;;;7.63;84.54
65131;BME280;51709;54.912;8.316;2024-01-25T05:08:09;101968.75;;;7.59;84.51
65131;BME280;51709;54.912;8.316;2024-01-25T05:13:30;101986.69;;;7.60;84.46
65131;BME280;51709;54.912;8.316;2024-01-25T05:18:51;101977.72;;;7.59;84.52
65131;BME280;51709;54.912;8.316;2024-01-25T05:24:12;101994.69;;;7.61;84.43
65131;BME280;51709;54.912;8.316;2024-01-25T05:29:32;101994.06;;;7.58;84.65
65131;BME280;51709;54.912;8.316;2024-01-25T05:34:53;101983.47;;;7.55;84.40
65131;BME280;51709;54.912;8.316;2024-01-25T05:40:13;102005.75;;;7.58;84.53
65131;BME280;51709;54.912;8.316;2024-01-25T05:45:34;101999.91;;;7.64;84.39
65131;BME280;51709;54.912;8.316;2024-01-25T05:50:55;101997.97;;;7.66;84.38
65131;BME280;51709;54.912;8.316;2024-01-25T05:56:16;101997.31;;;7.63;84.69
65131;BME280;51709;54.912;8.316;2024-01-25T06:01:36;102004.88;;;7.58;84.46
65131;BME280;51709;54.912;8.316;2024-01-25T06:06:57;101996.47;;;7.50;84.72
65131;BME280;51709;54.912;8.316;2024-01-25T06:12:18;102033.56;;;7.48;84.79
65131;BME280;51709;54.912;8.316;2024-01-25T06:17:39;102061.56;;;7.47;85.05
65131;BME280;51709;54.912;8.316;2024-01-25T06:22:59;102077.34;;;7.53;84.84
65131;BME280;51709;54.912;8.316;2024-01-25T06:28:20;102095.34;;;7.54;84.69
65131;BME280;51709;54.912;8.316;2024-01-25T06:33:42;102097.47;;;7.49;84.75
65131;BME280;51709;54.912;8.316;2024-01-25T06:39:03;102117.38;;;7.48;84.72
65131;BME280;51709;54.912;8.316;2024-01-25T06:44:27;102108.50;;;7.46;84.84
65131;BME280;51709;54.912;8.316;2024-01-25T06:49:48;102127.97;;;7.38;84.80
65131;BME280;51709;54.912;8.316;2024-01-25T06:55:13;102129.06;;;7.35;84.64
65131;BME280;51709;54.912;8.316;2024-01-25T07:00:34;102130.78;;;7.36;84.67
65131;BME280;51709;54.912;8.316;2024-01-25T07:05:55;102147.00;;;7.36;84.67
65131;BME280;51709;54.912;8.316;2024-01-25T07:11:15;102147.22;;;7.33;84.61
65131;BME280;51709;54.912;8.316;2024-01-25T07:16:37;102136.72;;;7.29;84.76
65131;BME280;51709;54.912;8.316;2024-01-25T07:21:58;102128.16;;;7.22;84.85
65131;BME280;51709;54.912;8.316;2024-01-25T07:27:19;102108.69;;;7.17;84.88
65131;BME280;51709;54.912;8.316;2024-01-25T07:32:40;102095.19;;;7.17;84.91
65131;BME280;51709;54.912;8.316;2024-01-25T07:38:03;102099.84;;;7.15;85.15
65131;BME280;51709;54.912;8.316;2024-01-25T07:43:23;102103.50;;;7.14;85.09
65131;BME280;51709;54.912;8.316;2024-01-25T07:48:44;102108.06;;;7.14;85.14
65131;BME280;51709;54.912;8.316;2024-01-25T07:54:04;102111.72;;;7.13;85.17
65131;BME280;51709;54.912;8.316;2024-01-25T07:59:25;102131.38;;;7.15;85.27
65131;BME280;51709;54.912;8.316;2024-01-25T08:04:46;102139.84;;;7.23;85.15
65131;BME280;51709;54.912;8.316;2024-01-25T08:10:07;102181.13;;;7.25;85.08
65131;BME280;51709;54.912;8.316;2024-01-25T08:15:28;102213.16;;;7.31;85.00
65131;BME280;51709;54.912;8.316;2024-01-25T08:20:49;102237.19;;;7.35;84.94
65131;BME280;51709;54.912;8.316;2024-01-25T08:26:11;102229.63;;;7.40;84.60
65131;BME280;51709;54.912;8.316;2024-01-25T08:31:32;102213.09;;;7.45;84.55
65131;BME280;51709;54.912;8.316;2024-01-25T08:36:53;102197.63;;;7.47;84.28
65131;BME280;51709;54.912;8.316;2024-01-25T08:42:13;102203.69;;;7.51;84.30
65131;BME280;51709;54.912;8.316;2024-01-25T08:47:53;102218.19;;;7.50;84.13
65131;BME280;51709;54.912;8.316;2024-01-25T08:53:14;102235.72;;;7.57;84.12
65131;BME280;51709;54.912;8.316;2024-01-25T08:58:34;102247.09;;;7.62;84.20
65131;BME280;51709;54.912;8.316;2024-01-25T09:03:55;102264.84;;;7.66;83.90
65131;BME280;51709;54.912;8.316;2024-01-25T09:09:17;102258.47;;;7.79;83.69
65131;BME280;51709;54.912;8.316;2024-01-25T09:14:38;102269.19;;;7.81;83.68
65131;BME280;51709;54.912;8.316;2024-01-25T09:19:59;102276.13;;;7.85;83.84
65131;BME280;51709;54.912;8.316;2024-01-25T09:25:22;102265.84;;;7.90;83.85
65131;BME280;51709;54.912;8.316;2024-01-25T09:30:43;102255.78;;;7.92;83.90
65131;BME280;51709;54.912;8.316;2024-01-25T09:36:03;102272.38;;;8.00;83.71
65131;BME280;51709;54.912;8.316;2024-01-25T09:41:24;102289.38;;;8.14;83.67
65131;BME280;51709;54.912;8.316;2024-01-25T09:46:45;102297.28;;;8.17;83.18
65131;BME280;51709;54.912;8.316;2024-01-25T09:52:07;102292.25;;;8.25;83.10
65131;BME280;51709;54.912;8.316;2024-01-25T09:57:35;102307.06;;;8.32;83.00
65131;BME280;51709;54.912;8.316;2024-01-25T10:02:57;102313.34;;;8.33;83.10
65131;BME280;51709;54.912;8.316;2024-01-25T10:08:17;102294.50;;;8.44;83.11
65131;BME280;51709;54.912;8.316;2024-01-25T10:13:42;102274.09;;;8.64;82.90
65131;BME280;51709;54.912;8.316;2024-01-25T10:19:06;102275.75;;;9.02;82.66
65131;BME280;51709;54.912;8.316;2024-01-25T10:24:29;102301.72;;;9.65;82.19
65131;BME280;51709;54.912;8.316;2024-01-25T10:29:50;102310.53;;;9.79;82.56
65131;BME280;51709;54.912;8.316;2024-01-25T10:35:13;102331.69;;;9.87;82.25
65131;BME280;51709;54.912;8.316;2024-01-25T10:40:38;102335.91;;;9.67;82.40
65131;BME280;51709;54.912;8.316;2024-01-25T10:46:00;102338.22;;;9.61;82.18
65131;BME280;51709;54.912;8.316;2024-01-25T10:51:26;102321.59;;;9.41;82.25
65131;BME280;51709;54.912;8.316;2024-01-25T10:56:47;102315.81;;;10.39;82.38
65131;BME280;51709;54.912;8.316;2024-01-25T11:02:08;102322.97;;;11.06;82.38
65131;BME280;51709;54.912;8.316;2024-01-25T11:07:49;102339.50;;;11.90;82.12
65131;BME280;51709;54.912;8.316;2024-01-25T11:13:13;102333.38;;;12.80;80.82
65131;BME280;51709;54.912;8.316;2024-01-25T11:18:55;102330.47;;;11.90;80.78
65131;BME280;51709;54.912;8.316;2024-01-25T11:24:21;102343.03;;;10.94;82.05
65131;BME280;51709;54.912;8.316;2024-01-25T11:29:42;102321.22;;;11.38;81.65
65131;BME280;51709;54.912;8.316;2024-01-25T11:35:04;102320.47;;;11.36;80.77
65131;BME280;51709;54.912;8.316;2024-01-25T11:40:25;102331.75;;;11.21;81.09
65131;BME280;51709;54.912;8.316;2024-01-25T11:45:46;102322.97;;;12.23;78.85
65131;BME280;51709;54.912;8.316;2024-01-25T11:51:09;102316.31;;;10.99;80.31
65131;BME280;51709;54.912;8.316;2024-01-25T11:56:32;102313.09;;;11.05;80.66
65131;BME280;51709;54.912;8.316;2024-01-25T12:01:53;102318.47;;;12.84;77.79
65131;BME280;51709;54.912;8.316;2024-01-25T12:07:14;102312.75;;;12.87;77.02
65131;BME280;51709;54.912;8.316;2024-01-25T12:12:36;102306.25;;;12.28;78.81
65131;BME280;51709;54.912;8.316;2024-01-25T12:17:58;102320.03;;;11.95;78.38
65131;BME280;51709;54.912;8.316;2024-01-25T12:23:19;102329.13;;;11.41;80.16
65131;BME280;51709;54.912;8.316;2024-01-25T12:28:40;102339.03;;;13.18;77.00
65131;BME280;51709;54.912;8.316;2024-01-25T12:34:01;102327.94;;;13.79;76.73
65131;BME280;51709;54.912;8.316;2024-01-25T12:39:22;102328.19;;;13.56;77.40
65131;BME280;51709;54.912;8.316;2024-01-25T12:44:43;102342.28;;;13.52;77.27
65131;BME280;51709;54.912;8.316;2024-01-25T12:50:04;102345.72;;;13.63;76.96
65131;BME280;51709;54.912;8.316;2024-01-25T12:55:25;102344.88;;;13.73;76.93
65131;BME280;51709;54.912;8.316;2024-01-25T13:00:45;102339.22;;;11.62;79.75
65131;BME280;51709;54.912;8.316;2024-01-25T13:06:07;102345.38;;;10.66;81.52
65131;BME280;51709;54.912;8.316;2024-01-25T13:11:27;102334.47;;;10.54;81.01
65131;BME280;51709;54.912;8.316;2024-01-25T13:16:48;102330.81;;;10.67;80.48
65131;BME280;51709;54.912;8.316;2024-01-25T13:22:09;102339.41;;;11.27;79.64
65131;BME280;51709;54.912;8.316;2024-01-25T13:27:30;102334.38;;;11.11;79.97
65131;BME280;51709;54.912;8.316;2024-01-25T13:32:51;102327.00;;;9.89;81.90
65131;BME280;51709;54.912;8.316;2024-01-25T13:38:13;102307.50;;;9.36;82.59
65131;BME280;51709;54.912;8.316;2024-01-25T13:43:35;102306.78;;;8.86;82.86
65131;BME280;51709;54.912;8.316;2024-01-25T13:48:55;102297.63;;;8.63;82.79
65131;BME280;51709;54.912;8.316;2024-01-25T13:54:16;102305.75;;;8.63;82.91
65131;BME280;51709;54.912;8.316;2024-01-25T13:59:37;102305.97;;;8.60;82.75
65131;BME280;51709;54.912;8.316;2024-01-25T14:04:58;102302.69;;;8.68;82.70
65131;BME280;51709;54.912;8.316;2024-01-25T14:10:18;102302.28;;;8.61;82.85
65131;BME280;51709;54.912;8.316;2024-01-25T14:15:40;102300.00;;;8.55;82.78
65131;BME280;51709;54.912;8.316;2024-01-25T14:21:01;102311.84;;;8.54;83.23
65131;BME280;51709;54.912;8.316;2024-01-25T14:26:21;102311.72;;;8.43;83.10
65131;BME280;51709;54.912;8.316;2024-01-25T14:31:42;102315.97;;;8.47;82.99
65131;BME280;51709;54.912;8.316;2024-01-25T14:37:03;102305.78;;;8.25;83.35
65131;BME280;51709;54.912;8.316;2024-01-25T14:42:23;102303.09;;;8.11;83.32
65131;BME280;51709;54.912;8.316;2024-01-25T14:47:44;102305.78;;;7.99;83.48
65131;BME280;51709;54.912;8.316;2024-01-25T14:53:04;102324.19;;;7.94;83.44
65131;BME280;51709;54.912;8.316;2024-01-25T14:58:25;102313.81;;;7.88;83.57
65131;BME280;51709;54.912;8.316;2024-01-25T15:03:46;102312.91;;;7.75;83.53
65131;BME280;51709;54.912;8.316;2024-01-25T15:09:07;102304.66;;;7.64;83.82
65131;BME280;51709;54.912;8.316;2024-01-25T15:14:28;102308.19;;;7.52;83.82
65131;BME280;51709;54.912;8.316;2024-01-25T15:19:48;102296.22;;;7.41;84.23
65131;BME280;51709;54.912;8.316;2024-01-25T15:25:10;102300.09;;;7.37;84.12
65131;BME280;51709;54.912;8.316;2024-01-25T15:30:30;102301.59;;;7.29;84.12
65131;BME280;51709;54.912;8.316;2024-01-25T15:35:51;102300.47;;;7.19;84.23
65131;BME280;51709;54.912;8.316;2024-01-25T15:41:12;102286.59;;;7.11;84.12
65131;BME280;51709;54.912;8.316;2024-01-25T15:46:32;102299.66;;;7.04;84.24
65131;BME280;51709;54.912;8.316;2024-01-25T15:51:54;102295.91;;;6.93;84.27
65131;BME280;51709;54.912;8.316;2024-01-25T15:57:14;102307.81;;;6.76;84.42
65131;BME280;51709;54.912;8.316;2024-01-25T16:02:35;102306.66;;;6.66;84.52
65131;BME280;51709;54.912;8.316;2024-01-25T16:07:56;102314.19;;;6.61;84.46
65131;BME280;51709;54.912;8.316;2024-01-25T16:13:17;102312.72;;;6.56;84.56
65131;BME280;51709;54.912;8.316;2024-01-25T16:18:38;102308.38;;;6.53;84.47
65131;BME280;51709;54.912;8.316;2024-01-25T16:23:59;102296.53;;;6.56;84.35
65131;BME280;51709;54.912;8.316;2024-01-25T16:29:19;102291.22;;;6.54;84.40
65131;BME280;51709;54.912;8.316;2024-01-25T16:34:40;102286.72;;;6.55;84.28
65131;BME280;51709;54.912;8.316;2024-01-25T16:40:01;102288.22;;;6.59;84.28
65131;BME280;51709;54.912;8.316;2024-01-25T16:45:22;102289.56;;;6.66;84.28
65131;BME280;51709;54.912;8.316;2024-01-25T16:50:43;102280.03;;;6.74;84.26
65131;BME280;51709;54.912;8.316;2024-01-25T16:56:03;102276.53;;;6.86;84.20
65131;BME280;51709;54.912;8.316;2024-01-25T17:01:24;102289.72;;;6.91;84.10
65131;BME280;51709;54.912;8.316;2024-01-25T17:06:45;102298.41;;;6.96;84.02
65131;BME280;51709;54.912;8.316;2024-01-25T17:12:06;102300.69;;;7.02;83.68
65131;BME280;51709;54.912;8.316;2024-01-25T17:17:26;102297.16;;;7.01;83.66
65131;BME280;51709;54.912;8.316;2024-01-25T17:22:47;102300.59;;;7.03;83.51
65131;BME280;51709;54.912;8.316;2024-01-25T17:28:08;102297.22;;;7.14;83.82
65131;BME280;51709;54.912;8.316;2024-01-25T17:33:29;102284.94;;;7.22;84.22
65131;BME280;51709;54.912;8.316;2024-01-25T17:38:51;102280.47;;;7.21;83.89
65131;BME280;51709;54.912;8.316;2024-01-25T17:44:12;102269.09;;;7.16;83.85
65131;BME280;51709;54.912;8.316;2024-01-25T17:49:32;102279.16;;;7.14;83.38
65131;BME280;51709;54.912;8.316;2024-01-25T17:54:53;102277.09;;;7.18;83.31
65131;BME280;51709;54.912;8.316;2024-01-25T18:00:14;102260.03;;;7.17;83.47
65131;BME280;51709;54.912;8.316;2024-01-25T18:05:38;102247.31;;;7.19;83.17
65131;BME280;51709;54.912;8.316;2024-01-25T18:10:58;102231.44;;;7.27;83.12
65131;BME280;51709;54.912;8.316;2024-01-25T18:16:21;102231.97;;;7.32;83.07
65131;BME280;51709;54.912;8.316;2024-01-25T18:21:43;102231.44;;;7.27;83.25
65131;BME280;51709;54.912;8.316;2024-01-25T18:27:04;102219.84;;;7.25;83.13
65131;BME280;51709;54.912;8.316;2024-01-25T18:32:25;102220.06;;;7.22;83.29
65131;BME280;51709;54.912;8.316;2024-01-25T18:37:46;102214.41;;;7.13;83.31
65131;BME280;51709;54.912;8.316;2024-01-25T18:43:07;102219.66;;;7.02;83.70
65131;BME280;51709;54.912;8.316;2024-01-25T18:48:28;102220.38;;;6.91;83.68
65131;BME280;51709;54.912;8.316;2024-01-25T18:53:49;102218.09;;;6.85;83.70
65131;BME280;51709;54.912;8.316;2024-01-25T18:59:10;102206.28;;;6.86;83.94
65131;BME280;51709;54.912;8.316;2024-01-25T19:04:31;102210.94;;;6.84;83.93
65131;BME280;51709;54.912;8.316;2024-01-25T19:09:52;102208.13;;;6.86;83.66
65131;BME280;51709;54.912;8.316;2024-01-25T19:15:15;102206.28;;;6.86;83.57
65131;BME280;51709;54.912;8.316;2024-01-25T19:20:37;102215.66;;;6.81;83.83
65131;BME280;51709;54.912;8.316;2024-01-25T19:26:00;102211.97;;;6.82;83.50
65131;BME280;51709;54.912;8.316;2024-01-25T19:31:22;102207.88;;;6.76;83.66
65131;BME280;51709;54.912;8.316;2024-01-25T19:36:43;102198.69;;;6.79;83.80
65131;BME280;51709;54.912;8.316;2024-01-25T19:42:08;102199.25;;;6.84;83.45
65131;BME280;51709;54.912;8.316;2024-01-25T19:47:29;102192.22;;;6.81;83.44
65131;BME280;51709;54.912;8.316;2024-01-25T19:52:49;102190.19;;;6.85;83.64
65131;BME280;51709;54.912;8.316;2024-01-25T19:58:10;102178.91;;;6.78;83.77
65131;BME280;51709;54.912;8.316;2024-01-25T20:03:32;102176.44;;;6.75;83.78
65131;BME280;51709;54.912;8.316;2024-01-25T20:08:53;102160.22;;;6.75;83.51
65131;BME280;51709;54.912;8.316;2024-01-25T20:14:14;102154.81;;;6.75;83.64
65131;BME280;51709;54.912;8.316;2024-01-25T20:19:35;102157.78;;;6.85;83.66
65131;BME280;51709;54.912;8.316;2024-01-25T20:24:55;102158.22;;;6.91;83.78
65131;BME280;51709;54.912;8.316;2024-01-25T20:30:16;102160.94;;;6.91;83.58
65131;BME280;51709;54.912;8.316;2024-01-25T20:35:37;102140.31;;;6.90;83.78
65131;BME280;51709;54.912;8.316;2024-01-25T20:40:58;102135.00;;;6.89;83.95
65131;BME280;51709;54.912;8.316;2024-01-25T20:46:18;102112.75;;;6.85;83.99
65131;BME280;51709;54.912;8.316;2024-01-25T20:51:39;102118.16;;;6.85;84.01
65131;BME280;51709;54.912;8.316;2024-01-25T20:57:01;102095.56;;;6.86;84.14
65131;BME280;51709;54.912;8.316;2024-01-25T21:02:22;102094.56;;;6.87;84.04
65131;BME280;51709;54.912;8.316;2024-01-25T21:07:43;102096.31;;;6.88;84.18
65131;BME280;51709;54.912;8.316;2024-01-25T21:13:04;102090.91;;;6.88;84.34
65131;BME280;51709;54.912;8.316;2024-01-25T21:18:25;102069.53;;;6.85;84.33
65131;BME280;51709;54.912;8.316;2024-01-25T21:23:47;102073.19;;;6.84;84.19
65131;BME280;51709;54.912;8.316;2024-01-25T21:29:07;102063.25;;;6.85;84.37
65131;BME280;51709;54.912;8.316;2024-01-25T21:34:28;102067.78;;;6.84;84.41
65131;BME280;51709;54.912;8.316;2024-01-25T21:39:48;102049.63;;;6.86;84.12
65131;BME280;51709;54.912;8.316;2024-01-25T21:45:09;102044.22;;;6.86;84.36
65131;BME280;51709;54.912;8.316;2024-01-25T21:50:33;102033.28;;;6.75;84.29
65131;BME280;51709;54.912;8.316;2024-01-25T21:55:54;102038.06;;;6.84;84.26
65131;BME280;51709;54.912;8.316;2024-01-25T22:01:15;102040.09;;;6.81;84.28
65131;BME280;51709;54.912;8.316;2024-01-25T22:06:36;102025.63;;;6.82;84.38
65131;BME280;51709;54.912;8.316;2024-01-25T22:11:57;102039.25;;;6.80;84.46
65131;BME280;51709;54.912;8.316;2024-01-25T22:17:17;102043.81;;;6.80;84.32
65131;BME280;51709;54.912;8.316;2024-01-25T22:22:39;102035.47;;;6.83;84.36
65131;BME280;51709;54.912;8.316;2024-01-25T22:28:00;102031.03;;;6.82;84.29
65131;BME280;51709;54.912;8.316;2024-01-25T22:33:21;102019.16;;;6.84;84.53
65131;BME280;51709;54.912;8.316;2024-01-25T22:38:42;102017.75;;;6.91;85.10
65131;BME280;51709;54.912;8.316;2024-01-25T22:44:03;102005.03;;;6.93;84.92
65131;BME280;51709;54.912;8.316;2024-01-25T22:49:24;101991.94;;;6.87;84.72
65131;BME280;51709;54.912;8.316;2024-01-25T22:54:44;101983.09;;;6.85;84.42
65131;BME280;51709;54.912;8.316;2024-01-25T23:00:08;101973.88;;;6.88;84.44
65131;BME280;51709;54.912;8.316;2024-01-25T23:05:43;101979.19;;;6.89;84.23
65131;BME280;51709;54.912;8.316;2024-01-25T23:11:03;101994.22;;;6.93;84.49
65131;BME280;51709;54.912;8.316;2024-01-25T23:16:24;101964.84;;;6.89;84.66
65131;BME280;51709;54.912;8.316;2024-01-25T23:21:45;101975.19;;;6.82;84.71
65131;BME280;51709;54.912;8.316;2024-01-25T23:27:06;101951.97;;;6.80;84.82
65131;BME280;51709;54.912;8.316;2024-01-25T23:32:27;101958.44;;;6.77;84.89
65131;BME280;51709;54.912;8.316;2024-01-25T23:37:47;101950.34;;;6.77;85.04
65131;BME280;51709;54.912;8.316;2024-01-25T23:43:08;101953.56;;;6.82;84.88
65131;BME280;51709;54.912;8.316;2024-01-25T23:48:29;101938.00;;;6.73;84.78
65131;BME280;51709;54.912;8.316;2024-01-25T23:53:49;101932.31;;;6.65;85.16
65131;BME280;51709;54.912;8.316;2024-01-25T23:59:10;101929.91;;;6.73;84.99
